Time;durP1;ratioP1;P1;durP2;ratioP2;P2;SDS_P1;SDS_P2;PMS_P1;PMS_P2;Temp;Humidity;BMP_temperature;BMP_pressure;BME280_temperature;BME280_humidity;BME280_pressure;Samples;Min_cycle;Max_cycle;Signal;HPM_P1;HPM_P2
2021/12/02 00:00:46;;;;;;;0.00;0.00;;;;;;;4.20;74.00;100852.03;7351246;19;20014;-60
2021/12/02 00:03:12;;;;;;;0.10;0.10;;;;;;;4.18;74.32;100854.59;7351922;19;20011;-58
2021/12/02 00:05:38;;;;;;;0.10;0.10;;;;;;;4.14;73.90;100850.28;7351106;19;20026;-60
2021/12/02 00:08:04;;;;;;;0.00;0.00;;;;;;;4.11;74.02;100853.72;7348327;19;20010;-60
2021/12/02 00:10:31;;;;;;;0.10;0.10;;;;;;;4.08;74.10;100842.50;7360662;19;20014;-60
2021/12/02 00:12:58;;;;;;;0.00;0.00;;;;;;;4.05;74.07;100839.88;7357474;19;20006;-59
2021/12/02 00:15:29;;;;;;;0.10;0.10;;;;;;;4.02;74.46;100832.13;7357394;19;20082;-60
2021/12/02 00:18:28;;;;;;;0.00;0.00;;;;;;;3.98;74.49;100830.38;7357406;19;20006;-59
2021/12/02 00:23:34;;;;;;;0.10;0.10;;;;;;;3.95;74.39;100840.66;7362452;19;20019;-60
2021/12/02 00:26:12;;;;;;;0.00;0.00;;;;;;;3.93;74.29;100847.56;7363589;19;20019;-60
2021/12/02 00:28:39;;;;;;;0.10;0.10;;;;;;;3.89;74.29;100857.00;7361708;19;20021;-60
2021/12/02 00:31:04;;;;;;;0.10;0.10;;;;;;;3.86;74.68;100851.81;7340429;19;20024;-60
2021/12/02 00:33:32;;;;;;;0.10;0.10;;;;;;;3.84;74.52;100851.78;7357113;19;20011;-60
2021/12/02 00:35:58;;;;;;;;;;;;;;;3.85;74.66;100852.66;7356763;19;20045;-59
2021/12/02 00:38:25;;;;;;;0.00;0.00;;;;;;;3.78;74.68;100851.75;7362034;19;19918;-59
2021/12/02 00:40:51;;;;;;;0.10;0.10;;;;;;;3.80;74.98;100863.00;7362008;19;20052;-59
2021/12/02 00:43:18;;;;;;;0.00;0.00;;;;;;;3.78;74.89;100869.84;7361589;19;20058;-60
2021/12/02 00:45:44;;;;;;;0.10;0.10;;;;;;;3.78;75.12;100871.56;7360837;19;20025;-60
2021/12/02 00:48:11;;;;;;;0.00;0.00;;;;;;;3.77;74.96;100872.41;7366662;19;20012;-60
2021/12/02 00:50:39;;;;;;;0.00;0.00;;;;;;;3.75;74.95;100872.41;7361311;19;20018;-59
2021/12/02 00:53:07;;;;;;;0.00;0.00;;;;;;;3.75;75.29;100872.41;7370029;19;20014;-59
2021/12/02 00:55:36;;;;;;;0.10;0.10;;;;;;;3.74;75.02;100868.06;7369094;19;20006;-60
2021/12/02 00:58:02;;;;;;;0.00;0.00;;;;;;;3.72;75.12;100862.03;7367117;19;20459;-58
2021/12/02 01:00:29;;;;;;;0.00;0.00;;;;;;;3.57;75.06;100842.13;7372783;19;20030;-60
2021/12/02 01:02:54;;;;;;;0.00;0.00;;;;;;;3.71;75.09;100870.66;7368329;19;20070;-59
2021/12/02 01:05:20;;;;;;;0.03;0.03;;;;;;;3.70;75.12;100866.34;7367241;19;20031;-59
2021/12/02 01:07:45;;;;;;;0.10;0.10;;;;;;;3.70;75.29;100875.78;7370138;19;20010;-59
2021/12/02 01:10:11;;;;;;;0.05;0.05;;;;;;;3.71;75.18;100860.31;7359042;19;20006;-60
2021/12/02 01:12:37;;;;;;;0.08;0.08;;;;;;;3.70;75.41;100856.03;7362264;19;20007;-60
2021/12/02 01:15:04;;;;;;;0.00;0.00;;;;;;;3.70;75.45;100858.59;7368301;19;20037;-59
2021/12/02 01:17:30;;;;;;;0.08;0.08;;;;;;;3.70;75.36;100860.28;7367226;19;20030;-59
2021/12/02 01:19:56;;;;;;;0.10;0.10;;;;;;;3.69;75.37;100859.44;7369718;19;20534;-59
2021/12/02 01:22:22;;;;;;;0.00;0.00;;;;;;;3.68;75.30;100855.13;7365923;19;20522;-60
2021/12/02 01:24:50;;;;;;;0.00;0.00;;;;;;;3.68;75.64;100852.53;7369664;19;20014;-59
2021/12/02 01:27:19;;;;;;;0.10;0.10;;;;;;;3.69;75.62;100849.09;7367805;19;20461;-61
2021/12/02 01:29:45;;;;;;;0.10;0.10;;;;;;;3.69;75.50;100850.81;7367735;19;20638;-60
2021/12/02 01:32:11;;;;;;;0.10;0.10;;;;;;;3.71;75.42;100849.13;7367989;19;20015;-58
2021/12/02 01:34:37;;;;;;;0.00;0.00;;;;;;;3.70;75.49;100856.03;7367325;19;20058;-60
2021/12/02 01:37:11;;;;;;;0.10;0.10;;;;;;;3.73;75.92;100856.03;7365687;19;20106;-60
2021/12/02 01:39:36;;;;;;;0.10;0.10;;;;;;;3.72;75.49;100856.03;7370328;19;20027;-60
2021/12/02 01:42:02;;;;;;;0.00;0.00;;;;;;;3.73;75.97;100861.19;7368935;19;20011;-60
2021/12/02 01:44:28;;;;;;;0.10;0.10;;;;;;;3.74;75.62;100857.75;7363534;19;20030;-60
2021/12/02 01:46:57;;;;;;;0.10;0.10;;;;;;;3.75;76.00;100853.44;7364230;19;20021;-60
2021/12/02 01:49:27;;;;;;;0.10;0.10;;;;;;;3.76;76.04;100853.47;7367465;19;20006;-60
2021/12/02 01:51:55;;;;;;;0.10;0.10;;;;;;;3.77;75.58;100862.09;7366767;19;20006;-59
2021/12/02 01:54:23;;;;;;;0.10;0.10;;;;;;;3.72;75.92;100846.56;7366472;19;20025;-59
2021/12/02 01:56:52;;;;;;;0.10;0.10;;;;;;;3.78;75.94;100849.19;7366204;19;20347;-59
2021/12/02 01:59:21;;;;;;;0.00;0.00;;;;;;;3.79;75.65;100861.22;7365564;19;20006;-59
2021/12/02 02:01:51;;;;;;;0.10;0.10;;;;;;;3.81;75.77;100869.00;7366466;19;20504;-60
2021/12/02 02:04:18;;;;;;;0.00;0.00;;;;;;;3.81;75.76;100879.34;7367253;19;20093;-60
2021/12/02 02:06:58;;;;;;;0.00;0.00;;;;;;;3.81;75.87;100880.22;7368031;19;20042;-60
2021/12/02 02:09:32;;;;;;;0.10;0.10;;;;;;;3.79;76.23;100868.97;7361965;19;20039;-60
2021/12/02 02:12:00;;;;;;;0.10;0.10;;;;;;;3.83;75.77;100868.16;7364787;19;20014;-60
2021/12/02 02:14:27;;;;;;;0.10;0.10;;;;;;;3.84;76.03;100880.22;7366378;19;20017;-60
2021/12/02 02:16:54;;;;;;;0.10;0.10;;;;;;;3.82;76.16;100876.75;7361984;19;20039;-60
2021/12/02 02:19:20;;;;;;;0.00;0.00;;;;;;;3.71;75.76;100862.91;7365947;19;20107;-60
2021/12/02 02:21:45;;;;;;;0.10;0.10;;;;;;;3.84;75.76;100890.53;7367033;19;20030;-61
2021/12/02 02:24:13;;;;;;;0.00;0.00;;;;;;;3.86;75.99;100898.31;7363503;19;20040;-60
2021/12/02 02:26:39;;;;;;;0.00;0.00;;;;;;;3.85;76.20;100899.16;7368061;19;20019;-59
2021/12/02 02:29:08;;;;;;;0.10;0.10;;;;;;;3.86;75.90;100899.19;7364824;19;20010;-60
2021/12/02 02:31:37;;;;;;;0.10;0.10;;;;;;;3.87;76.15;100911.25;7367254;19;20006;-58
2021/12/02 02:34:03;;;;;;;0.10;0.10;;;;;;;3.86;75.99;100909.53;7367207;19;20037;-59
2021/12/02 02:36:32;;;;;;;0.10;0.10;;;;;;;3.86;76.03;100914.69;7367565;19;20038;-59
2021/12/02 02:38:59;;;;;;;0.10;0.10;;;;;;;3.87;76.11;100911.25;7367217;19;20023;-59
2021/12/02 02:41:32;;;;;;;0.00;0.00;;;;;;;3.89;76.31;100922.44;7367782;19;20089;-59
2021/12/02 02:43:59;;;;;;;0.00;0.00;;;;;;;3.88;75.97;100923.31;7369337;19;20017;-60
2021/12/02 02:46:31;;;;;;;0.10;0.10;;;;;;;3.89;76.11;100924.16;7366112;19;20437;-59
2021/12/02 02:48:58;;;;;;;0.05;0.05;;;;;;;3.87;75.91;100931.91;7364737;19;20066;-59
2021/12/02 02:51:24;;;;;;;0.00;0.00;;;;;;;3.86;76.00;100940.53;7361721;19;20466;-60
2021/12/02 02:53:55;;;;;;;0.10;0.10;;;;;;;3.88;76.28;100943.09;7367740;19;20409;-59
2021/12/02 02:56:24;;;;;;;0.10;0.10;;;;;;;3.85;75.88;100949.13;7358695;19;20470;-60
2021/12/02 03:07:07;;;;;;;0.10;0.10;;;;;;;3.86;76.19;100950.00;7362404;19;20041;-60
2021/12/02 03:12:17;;;;;;;0.10;0.10;;;;;;;3.79;76.28;100943.88;7360706;19;20022;-58
2021/12/02 03:17:10;;;;;;;0.10;0.10;;;;;;;3.84;76.60;100959.44;7360023;19;20363;-59
2021/12/02 03:19:40;;;;;;;0.00;0.00;;;;;;;3.84;76.12;100956.84;7360698;19;20010;-61
2021/12/02 03:22:06;;;;;;;0.00;0.00;;;;;;;3.83;76.46;100958.56;7360366;19;20013;-59
2021/12/02 03:24:32;;;;;;;0.10;0.10;;;;;;;3.72;76.50;100936.94;7367127;19;20010;-60
2021/12/02 03:26:57;;;;;;;0.00;0.00;;;;;;;3.81;76.34;100956.84;7360441;19;20497;-61
2021/12/02 03:29:23;;;;;;;0.10;0.10;;;;;;;3.79;76.09;100967.13;7364522;19;20010;-58
2021/12/02 03:31:49;;;;;;;0.10;0.10;;;;;;;3.78;76.46;100968.00;7359099;19;20028;-59
2021/12/02 03:34:15;;;;;;;0.10;0.10;;;;;;;3.78;76.46;100970.56;7366508;19;20069;-59
2021/12/02 03:36:41;;;;;;;0.00;0.00;;;;;;;3.79;76.76;100980.03;7356577;19;20007;-59
2021/12/02 03:39:08;;;;;;;0.00;0.00;;;;;;;3.78;76.81;100988.66;7361587;19;19998;-60
2021/12/02 03:41:35;;;;;;;0.10;0.10;;;;;;;3.80;76.61;100989.56;7365546;19;20879;-60
2021/12/02 03:44:00;;;;;;;0.00;0.00;;;;;;;3.75;76.83;100988.66;7360740;19;20033;-60
2021/12/02 03:46:26;;;;;;;0.10;0.10;;;;;;;3.79;77.12;100987.78;7356007;19;20007;-60
2021/12/02 03:48:53;;;;;;;0.00;0.00;;;;;;;3.84;76.85;100993.88;7365749;19;20037;-60
2021/12/02 03:51:19;;;;;;;0.00;0.00;;;;;;;3.86;77.15;100997.34;7364219;19;20014;-60
2021/12/02 03:53:45;;;;;;;0.10;0.10;;;;;;;3.89;76.73;100996.50;7358258;19;20373;-60
2021/12/02 03:56:11;;;;;;;0.00;0.00;;;;;;;3.89;77.02;100997.38;7367343;19;20037;-60
2021/12/02 03:58:41;;;;;;;0.00;0.00;;;;;;;3.90;76.67;100991.38;7355442;19;20010;-60
2021/12/02 04:01:08;;;;;;;0.10;0.10;;;;;;;3.92;76.71;100985.34;7361994;19;20024;-60
2021/12/02 04:03:34;;;;;;;0.10;0.10;;;;;;;3.91;76.56;100984.47;7366925;19;20011;-59
2021/12/02 04:06:00;;;;;;;0.10;0.10;;;;;;;3.90;76.61;100993.94;7363140;19;20010;-60
2021/12/02 04:08:31;;;;;;;0.10;0.10;;;;;;;3.92;76.72;100998.25;7355340;19;20010;-59
2021/12/02 04:11:20;;;;;;;0.00;0.00;;;;;;;3.92;76.96;100985.34;7366728;19;20014;-60
2021/12/02 04:16:20;;;;;;;0.00;0.00;;;;;;;3.89;76.65;100976.69;7363499;19;20847;-59
2021/12/02 04:18:45;;;;;;;0.00;0.00;;;;;;;3.87;76.75;100983.56;7361754;19;20042;-60
2021/12/02 04:21:11;;;;;;;0.00;0.00;;;;;;;3.89;76.53;100988.75;7366354;19;20003;-60
2021/12/02 04:23:36;;;;;;;0.05;0.05;;;;;;;3.88;76.80;100995.63;7372555;19;20013;-59
2021/12/02 04:26:02;;;;;;;0.10;0.10;;;;;;;3.87;76.77;101004.25;7375104;19;20390;-59
2021/12/02 04:28:27;;;;;;;0.00;0.00;;;;;;;3.85;76.33;100999.91;7368316;19;20676;-59
2021/12/02 04:30:53;;;;;;;0.10;0.10;;;;;;;3.85;76.28;100994.72;7372773;19;20021;-59
2021/12/02 04:33:18;;;;;;;0.00;0.00;;;;;;;3.84;76.72;101004.19;7368444;19;20049;-60
2021/12/02 04:35:44;;;;;;;0.00;0.00;;;;;;;3.82;76.56;101011.09;7373463;19;20014;-60
2021/12/02 04:38:09;;;;;;;0.00;0.00;;;;;;;3.82;76.67;101026.59;7368424;19;20003;-59
2021/12/02 04:40:36;;;;;;;0.10;0.10;;;;;;;3.80;76.41;101017.97;7373469;19;20459;-59
2021/12/02 04:43:02;;;;;;;0.10;0.10;;;;;;;3.81;76.59;101027.44;7374201;19;20359;-59
2021/12/02 04:45:28;;;;;;;0.00;0.00;;;;;;;3.79;76.75;101026.53;7368374;19;20017;-60
2021/12/02 04:47:53;;;;;;;0.08;0.08;;;;;;;3.78;76.85;101019.66;7373100;19;20441;-60
2021/12/02 04:50:18;;;;;;;0.00;0.00;;;;;;;3.77;76.74;101029.97;7366453;19;20014;-60
2021/12/02 04:52:44;;;;;;;0.10;0.10;;;;;;;3.76;76.63;101031.69;7370406;19;20023;-59
2021/12/02 04:55:10;;;;;;;0.10;0.10;;;;;;;3.76;76.79;101031.69;7370584;19;20014;-60
2021/12/02 04:57:36;;;;;;;0.05;0.05;;;;;;;3.61;76.79;101016.03;7369957;19;20510;-60
2021/12/02 05:00:04;;;;;;;0.00;0.00;;;;;;;3.76;76.53;101041.16;7369623;19;20023;-59
2021/12/02 05:02:29;;;;;;;0.00;0.00;;;;;;;3.74;77.00;101042.84;7367585;19;20011;-59
2021/12/02 05:04:55;;;;;;;0.10;0.10;;;;;;;3.73;76.76;101041.97;7370824;19;20082;-60
2021/12/02 05:07:20;;;;;;;0.10;0.10;;;;;;;3.73;76.38;101034.22;7370495;19;20495;-60
2021/12/02 05:09:46;;;;;;;0.10;0.10;;;;;;;3.73;76.61;101056.63;7370627;19;20014;-61
2021/12/02 05:12:11;;;;;;;0.00;0.00;;;;;;;3.69;76.95;101057.44;7369587;19;20006;-60
2021/12/02 05:14:36;;;;;;;0.10;0.10;;;;;;;3.69;76.38;101076.38;7370125;19;20010;-59
2021/12/02 05:17:02;;;;;;;0.10;0.10;;;;;;;3.68;76.36;101079.81;7372653;19;20731;-59
2021/12/02 05:19:27;;;;;;;0.10;0.10;;;;;;;3.56;76.20;101067.63;7365252;19;20015;-60
2021/12/02 05:21:53;;;;;;;0.00;0.00;;;;;;;3.65;76.20;101079.78;7371664;19;20006;-59
2021/12/02 05:24:18;;;;;;;0.10;0.10;;;;;;;3.62;76.24;101079.75;7369956;19;20014;-60
2021/12/02 05:26:43;;;;;;;0.10;0.10;;;;;;;3.61;76.55;101080.59;7369492;19;20014;-60
2021/12/02 05:29:09;;;;;;;0.10;0.10;;;;;;;3.59;76.62;101077.09;7371453;19;20691;-60
2021/12/02 05:31:34;;;;;;;0.00;0.00;;;;;;;3.59;76.71;101090.03;7362543;19;20034;-59
2021/12/02 05:33:59;;;;;;;0.00;0.00;;;;;;;3.58;76.83;101091.75;7367836;19;20018;-60
2021/12/02 05:36:25;;;;;;;0.10;0.10;;;;;;;3.55;76.97;101093.44;7370747;19;21418;-60
2021/12/02 05:38:50;;;;;;;0.08;0.08;;;;;;;3.56;77.10;101096.03;7366604;19;20026;-60
2021/12/02 05:41:17;;;;;;;0.00;0.00;;;;;;;3.59;77.28;101098.63;7371783;19;20022;-60
2021/12/02 05:43:42;;;;;;;0.10;0.10;;;;;;;3.64;76.99;101109.03;7367335;19;20021;-60
2021/12/02 05:46:08;;;;;;;0.10;0.10;;;;;;;3.68;77.09;101112.53;7368751;19;21353;-59
2021/12/02 05:48:33;;;;;;;0.10;0.10;;;;;;;3.72;77.56;101112.56;7368277;19;20014;-60
2021/12/02 05:50:59;;;;;;;0.00;0.00;;;;;;;3.76;77.59;101122.09;7371830;19;20010;-60
2021/12/02 05:53:25;;;;;;;0.00;0.00;;;;;;;3.82;77.37;101123.88;7368845;19;20388;-58
2021/12/02 05:55:51;;;;;;;0.00;0.00;;;;;;;3.84;77.04;101117.88;7367928;19;20475;-60
2021/12/02 05:58:16;;;;;;;0.10;0.10;;;;;;;3.87;77.29;101111.88;7367525;19;20002;-60
2021/12/02 06:00:42;;;;;;;0.00;0.00;;;;;;;3.91;77.63;101108.50;7368531;19;20022;-59
2021/12/02 06:03:08;;;;;;;0.10;0.10;;;;;;;4.01;77.28;101122.38;7368610;19;20007;-60
2021/12/02 06:05:33;;;;;;;0.00;0.00;;;;;;;4.03;77.29;101118.09;7369622;19;20066;-59
2021/12/02 06:08:01;;;;;;;0.10;0.10;;;;;;;4.10;77.42;101119.88;7364983;19;20025;-60
2021/12/02 06:10:27;;;;;;;0.00;0.00;;;;;;;4.14;77.32;101129.41;7369506;19;20102;-60
2021/12/02 06:12:53;;;;;;;0.00;0.00;;;;;;;4.13;76.88;101118.19;7370629;19;20011;-60
2021/12/02 06:15:19;;;;;;;0.00;0.00;;;;;;;4.23;77.36;101132.06;7367423;19;20486;-58
2021/12/02 06:17:45;;;;;;;0.10;0.10;;;;;;;4.29;77.18;101134.72;7370836;19;20029;-60
2021/12/02 06:20:12;;;;;;;0.10;0.10;;;;;;;4.33;77.27;101128.72;7367010;19;20035;-60
2021/12/02 06:22:38;;;;;;;;;;;;;;;4.41;76.69;101127.09;7369367;19;20018;-59
2021/12/02 06:27:39;;;;;;;0.03;0.03;;;;;;;4.46;76.81;101126.25;7369119;19;20390;-60
2021/12/02 06:30:05;;;;;;;0.00;0.00;;;;;;;4.46;76.68;101132.31;7368071;19;20021;-59
2021/12/02 06:32:30;;;;;;;0.00;0.00;;;;;;;4.47;76.64;101139.22;7370701;19;20014;-60
2021/12/02 06:34:56;;;;;;;0.00;0.00;;;;;;;4.49;76.58;101140.09;7370073;19;22339;-60
2021/12/02 06:37:21;;;;;;;0.00;0.00;;;;;;;4.50;76.73;101146.13;7364804;19;20014;-60
2021/12/02 06:39:47;;;;;;;0.00;0.00;;;;;;;4.52;76.74;101144.44;7365329;19;20042;-60
2021/12/02 06:42:14;;;;;;;0.00;0.00;;;;;;;4.54;76.65;101159.09;7369642;19;20007;-60
2021/12/02 06:44:39;;;;;;;0.00;0.00;;;;;;;4.56;76.55;101162.59;7367680;19;20034;-58
2021/12/02 06:47:05;;;;;;;0.10;0.10;;;;;;;4.59;76.31;101165.19;7367023;19;20023;-59
2021/12/02 06:49:32;;;;;;;0.10;0.10;;;;;;;4.62;76.63;101169.53;7367930;19;20670;-60
2021/12/02 06:51:58;;;;;;;0.10;0.10;;;;;;;4.65;76.62;101166.94;7361626;19;20010;-59
2021/12/02 06:54:23;;;;;;;0.10;0.10;;;;;;;4.68;76.33;101169.56;7367777;19;20006;-60
2021/12/02 06:56:49;;;;;;;0.10;0.10;;;;;;;4.72;76.14;101167.88;7363280;19;20963;-60
2021/12/02 06:59:14;;;;;;;0.00;0.00;;;;;;;4.72;76.39;101166.16;7363219;19;20014;-60
2021/12/02 07:01:39;;;;;;;0.00;0.00;;;;;;;4.74;76.46;101172.22;7364552;19;20010;-59
2021/12/02 07:04:05;;;;;;;0.10;0.10;;;;;;;4.74;76.42;101167.03;7366530;19;20106;-60
2021/12/02 07:06:30;;;;;;;0.10;0.10;;;;;;;4.59;76.31;101134.13;7358743;19;20090;-59
2021/12/02 07:08:56;;;;;;;0.10;0.10;;;;;;;4.60;76.05;101132.41;7357212;19;20010;-59
2021/12/02 07:11:21;;;;;;;0.00;0.00;;;;;;;4.70;76.18;101149.75;7365141;19;20347;-60
2021/12/02 07:13:49;;;;;;;0.00;0.00;;;;;;;4.76;76.25;101160.13;7366071;19;20006;-60
2021/12/02 07:16:15;;;;;;;0.00;0.00;;;;;;;4.59;75.89;101135.84;7366470;19;20002;-60
2021/12/02 07:18:46;;;;;;;0.10;0.10;;;;;;;4.67;76.10;101165.25;7353720;19;20033;-61
2021/12/02 07:21:12;;;;;;;0.10;0.10;;;;;;;4.72;75.73;101179.09;7365277;19;20010;-59
2021/12/02 07:23:37;;;;;;;0.10;0.10;;;;;;;4.62;75.64;101161.75;7356937;19;20019;-61
2021/12/02 07:26:02;;;;;;;0.00;0.00;;;;;;;4.63;75.42;101173.84;7357935;19;20010;-60
2021/12/02 07:28:31;;;;;;;0.00;0.00;;;;;;;4.63;75.58;101172.13;7362683;19;20565;-58
2021/12/02 07:30:56;;;;;;;0.00;0.00;;;;;;;4.60;75.60;101176.38;7362707;19;20023;-60
2021/12/02 07:33:28;;;;;;;0.00;0.00;;;;;;;4.58;75.43;101181.56;7363980;19;20011;-60
2021/12/02 07:35:53;;;;;;;0.10;0.10;;;;;;;4.53;75.65;101190.13;7365559;19;20006;-61
2021/12/02 07:38:19;;;;;;;0.00;0.00;;;;;;;4.47;75.58;101177.16;7364193;19;20025;-60
2021/12/02 07:40:44;;;;;;;0.08;0.08;;;;;;;4.48;75.29;101184.03;7361714;19;20015;-61
2021/12/02 07:43:10;;;;;;;0.00;0.00;;;;;;;4.43;75.36;101187.44;7365502;19;20453;-60
2021/12/02 07:45:35;;;;;;;0.10;0.10;;;;;;;4.41;75.38;101183.13;7357610;19;20102;-61
2021/12/02 07:48:05;;;;;;;0.00;0.00;;;;;;;4.21;75.56;101156.16;7362596;19;20014;-59
2021/12/02 07:50:32;;;;;;;0.00;0.00;;;;;;;4.33;75.62;101185.63;7363331;19;20018;-61
2021/12/02 07:53:03;;;;;;;0.10;0.10;;;;;;;4.32;75.52;101189.06;7361505;19;20557;-58
2021/12/02 07:55:30;;;;;;;0.10;0.10;;;;;;;4.26;75.67;101176.06;7360337;19;20010;-60
2021/12/02 07:57:57;;;;;;;0.00;0.00;;;;;;;4.23;75.94;101175.16;7373330;19;20013;-60
2021/12/02 08:00:25;;;;;;;0.10;0.10;;;;;;;4.15;75.85;101159.56;7375409;19;20470;-59
2021/12/02 08:02:52;;;;;;;0.10;0.10;;;;;;;4.18;75.71;101169.94;7377250;19;20854;-56
2021/12/02 08:05:21;;;;;;;0.10;0.10;;;;;;;3.97;76.03;101143.88;7380280;19;20638;-60
2021/12/02 08:07:46;;;;;;;0.00;0.00;;;;;;;4.15;75.74;101178.50;7375762;19;20014;-59
2021/12/02 08:10:14;;;;;;;0.00;0.00;;;;;;;4.15;75.98;101191.44;7373607;19;21320;-60
2021/12/02 08:12:46;;;;;;;0.10;0.10;;;;;;;4.14;76.16;101194.00;7376879;19;20018;-61
2021/12/02 08:15:12;;;;;;;0.10;0.10;;;;;;;4.12;76.18;101185.38;7375969;19;20014;-58
2021/12/02 08:17:37;;;;;;;0.10;0.10;;;;;;;4.13;75.96;101181.94;7375847;19;20018;-61
2021/12/02 08:20:03;;;;;;;0.10;0.10;;;;;;;4.11;75.97;101174.19;7376427;19;20018;-60
2021/12/02 08:22:31;;;;;;;0.08;0.08;;;;;;;4.11;76.32;101170.72;7375465;19;20018;-61
2021/12/02 08:24:56;;;;;;;0.00;0.00;;;;;;;4.11;76.20;101157.81;7366303;19;20017;-60
2021/12/02 08:27:22;;;;;;;0.10;0.10;;;;;;;4.10;76.17;101156.91;7373291;19;20014;-60
2021/12/02 08:29:48;;;;;;;0.00;0.00;;;;;;;4.10;76.33;101161.22;7363672;19;20618;-59
2021/12/02 08:32:14;;;;;;;0.00;0.00;;;;;;;4.15;76.61;101164.72;7369730;19;20493;-59
2021/12/02 08:34:42;;;;;;;0.00;0.00;;;;;;;4.16;76.52;101158.72;7373792;19;20018;-59
2021/12/02 08:37:09;;;;;;;0.10;0.10;;;;;;;4.19;76.49;101161.31;7372961;19;20025;-59
2021/12/02 08:39:35;;;;;;;0.08;0.08;;;;;;;4.22;76.75;101165.69;7369713;19;20006;-61
2021/12/02 08:42:02;;;;;;;0.00;0.00;;;;;;;4.14;76.62;101147.50;7375725;19;20015;-59
2021/12/02 08:44:30;;;;;;;0.10;0.10;;;;;;;4.27;76.33;101170.03;7369289;19;20090;-60
2021/12/02 08:46:57;;;;;;;0.00;0.00;;;;;;;4.33;76.70;101175.28;7370571;19;20801;-60
2021/12/02 08:49:23;;;;;;;0.00;0.00;;;;;;;4.34;76.63;101177.00;7366812;19;20049;-60
2021/12/02 08:51:51;;;;;;;0.00;0.00;;;;;;;4.37;76.50;101189.09;7369457;19;20010;-60
2021/12/02 08:54:17;;;;;;;0.00;0.00;;;;;;;4.40;76.57;101182.22;7373844;19;20014;-59
2021/12/02 08:56:42;;;;;;;0.10;0.10;;;;;;;4.44;76.57;101177.97;7373669;19;20014;-59
2021/12/02 08:59:08;;;;;;;0.03;0.03;;;;;;;4.47;76.25;101187.47;7375512;19;20010;-59
2021/12/02 09:01:34;;;;;;;0.10;0.10;;;;;;;4.46;76.69;101190.91;7365158;19;20052;-59
2021/12/02 09:04:04;;;;;;;0.00;0.00;;;;;;;4.50;76.60;101197.84;7373371;19;20079;-59
2021/12/02 09:06:30;;;;;;;0.00;0.00;;;;;;;4.43;76.07;101187.44;7362547;19;20027;-59
2021/12/02 09:08:58;;;;;;;0.00;0.00;;;;;;;4.59;76.60;101205.69;7354160;19;20021;-59
2021/12/02 09:11:26;;;;;;;0.10;0.10;;;;;;;4.62;76.27;101196.25;7360463;19;20094;-58
2021/12/02 09:13:56;;;;;;;;;;;;;;;4.72;76.37;101194.63;7363554;19;20018;-59
2021/12/02 09:16:22;;;;;;;0.10;0.10;;;;;;;4.61;76.35;101171.25;7366317;19;20283;-59
2021/12/02 09:18:47;;;;;;;0.10;0.10;;;;;;;4.80;76.49;101198.13;7367053;19;20098;-61
2021/12/02 09:21:13;;;;;;;0.10;0.10;;;;;;;4.86;76.14;101203.34;7366364;19;20026;-60
2021/12/02 09:23:38;;;;;;;0.00;0.00;;;;;;;4.92;75.95;101207.75;7366017;19;20014;-60
2021/12/02 09:26:03;;;;;;;0.10;0.10;;;;;;;4.99;76.08;101204.34;7364931;19;20018;-59
2021/12/02 09:28:29;;;;;;;0.00;0.00;;;;;;;5.02;76.13;101198.31;7364604;19;20007;-59
2021/12/02 09:30:54;;;;;;;0.00;0.00;;;;;;;5.17;76.20;101208.78;7367663;19;20006;-59
2021/12/02 09:33:20;;;;;;;0.00;0.00;;;;;;;5.29;76.33;101205.44;7366634;19;20102;-59
2021/12/02 09:35:45;;;;;;;0.10;0.10;;;;;;;5.42;76.11;101210.72;7366784;19;20013;-59
2021/12/02 09:38:11;;;;;;;0.10;0.10;;;;;;;5.56;75.88;101221.13;7365584;19;20034;-59
2021/12/02 09:40:39;;;;;;;0.00;0.00;;;;;;;5.72;75.81;101214.31;7367408;19;20015;-58
2021/12/02 09:43:05;;;;;;;0.10;0.10;;;;;;;5.88;75.64;101216.16;7365786;19;20737;-59
2021/12/02 09:45:31;;;;;;;0.00;0.00;;;;;;;6.07;75.70;101221.44;7370681;19;20480;-59
2021/12/02 09:47:56;;;;;;;0.00;0.00;;;;;;;6.28;75.26;101221.50;7362888;19;20460;-60
2021/12/02 09:50:33;;;;;;;0.00;0.00;;;;;;;6.48;74.88;101218.97;7365331;19;20030;-60
2021/12/02 09:53:07;;;;;;;0.10;0.10;;;;;;;6.50;74.83;101204.28;7360520;19;20070;-60
2021/12/02 09:58:01;;;;;;;0.05;0.05;;;;;;;6.66;73.86;101218.16;7366252;19;21103;-60
2021/12/02 10:00:45;;;;;;;0.00;0.00;;;;;;;6.69;73.81;101212.94;7366709;19;20026;-60
2021/12/02 10:03:23;;;;;;;0.00;0.00;;;;;;;6.66;73.76;101223.34;7362754;19;20038;-60
2021/12/02 10:06:04;;;;;;;0.08;0.08;;;;;;;6.71;74.34;101232.00;7364485;19;20047;-59
2021/12/02 10:08:35;;;;;;;0.03;0.03;;;;;;;6.68;73.74;101240.63;7362084;19;20010;-60
2021/12/02 10:11:05;;;;;;;0.00;0.00;;;;;;;6.69;73.83;101244.09;7358403;19;20597;-60
2021/12/02 10:14:20;;;;;;;0.00;0.00;;;;;;;6.73;73.99;101238.03;7366573;19;20416;-60
2021/12/02 10:16:30;;;;;;;0.00;0.00;;;;;;;6.84;73.67;101249.31;7262520;19;2004403;-60
2021/12/02 10:19:10;;;;;;;0.00;0.00;;;;;;;6.97;73.84;101251.06;7364638;19;20018;-59
2021/12/02 10:21:56;;;;;;;0.00;0.00;;;;;;;7.08;73.79;101248.47;7352601;19;20707;-59
2021/12/02 10:24:25;;;;;;;0.00;0.00;;;;;;;7.24;73.52;101241.53;7362450;19;20022;-61
2021/12/02 10:27:04;;;;;;;0.05;0.05;;;;;;;7.47;74.32;101232.00;7361800;19;20037;-60
2021/12/02 10:29:33;;;;;;;0.08;0.08;;;;;;;7.73;73.65;101238.88;7363239;19;20014;-60
2021/12/02 10:32:12;;;;;;;0.00;0.00;;;;;;;8.11;73.91;101230.09;7357161;19;20045;-60
2021/12/02 10:34:51;;;;;;;0.00;0.00;;;;;;;8.53;73.29;101235.13;7364974;19;20014;-59
2021/12/02 10:37:18;;;;;;;0.00;0.00;;;;;;;8.92;71.44;101237.47;7367144;19;20011;-60
2021/12/02 10:40:17;;;;;;;0.00;0.00;;;;;;;9.45;72.29;101236.16;7358384;19;20030;-59
2021/12/02 10:42:45;;;;;;;0.00;0.00;;;;;;;9.87;69.61;101237.44;7260211;19;2004935;-60
2021/12/02 10:45:23;;;;;;;;;;;;;;;10.30;72.38;101243.06;7363368;19;20031;-60
2021/12/02 10:47:50;;;;;;;0.00;0.00;;;;;;;10.51;67.88;101241.91;7363307;19;20419;-60
2021/12/02 10:50:17;;;;;;;0.00;0.00;;;;;;;10.68;67.17;101248.66;7363047;19;20022;-61
2021/12/02 10:52:43;;;;;;;0.10;0.10;;;;;;;10.75;66.43;101240.72;7368544;19;21028;-63
2021/12/02 10:55:14;;;;;;;0.00;0.00;;;;;;;10.84;66.24;101234.47;7364262;19;20015;-63
2021/12/02 10:58:01;;;;;;;0.00;0.00;;;;;;;10.83;66.58;101227.53;7365334;19;20014;-65
2021/12/02 11:00:33;;;;;;;0.00;0.00;;;;;;;10.77;66.72;101223.25;7358806;19;20474;-60
2021/12/02 11:03:08;;;;;;;0.10;0.10;;;;;;;10.67;66.82;101205.13;7368019;19;20010;-60
2021/12/02 11:05:34;;;;;;;0.00;0.00;;;;;;;10.59;65.59;101223.50;7362737;19;20066;-60
2021/12/02 11:08:05;;;;;;;0.05;0.05;;;;;;;10.51;66.59;101220.16;7363780;19;20026;-61
2021/12/02 11:10:34;;;;;;;0.03;0.03;;;;;;;10.41;66.04;101223.78;7361821;19;20013;-60
2021/12/02 11:13:00;;;;;;;0.10;0.10;;;;;;;10.30;66.20;101226.56;7359612;19;20003;-60
2021/12/02 11:15:29;;;;;;;0.00;0.00;;;;;;;10.24;66.55;101226.59;7361768;19;20030;-61
2021/12/02 11:18:06;;;;;;;0.00;0.00;;;;;;;10.08;67.70;101212.84;7363320;19;20502;-60
2021/12/02 11:20:32;;;;;;;0.00;0.00;;;;;;;10.06;67.01;101222.47;7358904;19;20636;-60
2021/12/02 11:23:07;;;;;;;0.00;0.00;;;;;;;9.84;67.70;101195.78;7359123;19;20010;-60
2021/12/02 11:25:35;;;;;;;0.00;0.00;;;;;;;9.88;67.38;101223.53;7358854;19;20011;-60
2021/12/02 11:28:06;;;;;;;0.00;0.00;;;;;;;9.80;67.82;101221.03;7364362;19;20011;-60
2021/12/02 11:30:33;;;;;;;0.00;0.00;;;;;;;9.72;67.52;101221.97;7356060;19;21215;-61
2021/12/02 11:33:01;;;;;;;0.00;0.00;;;;;;;9.67;68.07;101219.41;7360586;19;20006;-60
2021/12/02 11:35:35;;;;;;;;;;;;;;;9.67;70.46;101214.19;7364507;19;20841;-60
2021/12/02 11:38:04;;;;;;;0.00;0.00;;;;;;;9.60;68.75;101216.03;7363621;19;19919;-60
2021/12/02 11:40:54;;;;;;;0.08;0.08;;;;;;;9.61;69.47;101204.69;7363730;19;20010;-60
2021/12/02 11:43:26;;;;;;;0.00;0.00;;;;;;;9.54;68.48;101210.88;7356081;19;20475;-60
2021/12/02 11:45:54;;;;;;;0.00;0.00;;;;;;;9.51;69.03;101203.06;7364108;19;20014;-60
2021/12/02 11:48:28;;;;;;;0.00;0.00;;;;;;;9.54;69.82;101202.19;7358817;19;20041;-60
2021/12/02 11:50:57;;;;;;;0.10;0.10;;;;;;;9.53;69.20;101196.13;7360415;19;20827;-61
2021/12/02 11:53:23;;;;;;;0.00;0.00;;;;;;;9.52;69.42;101194.38;7356218;19;20037;-60
2021/12/02 11:56:17;;;;;;;0.00;0.00;;;;;;;9.57;70.38;101191.72;7357641;19;20010;-60
2021/12/02 11:58:45;;;;;;;0.10;0.10;;;;;;;9.58;69.12;101188.25;7261484;19;2004376;-60
2021/12/02 12:01:17;;;;;;;0.10;0.10;;;;;;;9.60;69.17;101179.50;7350844;19;20041;-60